Time;durP1;ratioP1;P1;durP2;ratioP2;P2;SDS_P1;SDS_P2;PMS_P1;PMS_P2;Temp;Humidity;BMP_temperature;BMP_pressure;BME280_temperature;BME280_humidity;BME280_pressure;Samples;Min_cycle;Max_cycle;Signal;HPM_P1;HPM_P2
2024/01/24 00:01:36;;;;;;;2.07;1.70;;;7.90;99.90;;;;;;5037327;28;20211;-50
2024/01/24 00:04:03;;;;;;;2.10;1.57;;;7.90;99.90;;;;;;5004385;28;20207;-48
2024/01/24 00:06:30;;;;;;;1.70;1.60;;;8.00;99.90;;;;;;5029889;28;20207;-51
2024/01/24 00:08:56;;;;;;;2.13;1.87;;;8.00;99.90;;;;;;5026484;28;20203;-48
2024/01/24 00:11:23;;;;;;;1.90;1.80;;;8.00;99.90;;;;;;5039980;28;20231;-51
2024/01/24 00:13:50;;;;;;;2.70;1.87;;;8.10;99.90;;;;;;5037781;28;20210;-49
2024/01/24 00:16:17;;;;;;;1.60;1.50;;;8.10;99.90;;;;;;5037478;28;20611;-51
2024/01/24 00:18:46;;;;;;;2.70;2.00;;;8.20;99.90;;;;;;5011130;28;20981;-49
2024/01/24 00:21:12;;;;;;;2.13;1.93;;;8.20;99.90;;;;;;5034400;28;20212;-49
2024/01/24 00:23:39;;;;;;;2.30;2.10;;;8.20;99.90;;;;;;5036913;28;20200;-47
2024/01/24 00:26:06;;;;;;;2.73;2.40;;;8.30;99.90;;;;;;5037449;28;20253;-52
2024/01/24 00:28:33;;;;;;;2.37;2.27;;;8.40;99.90;;;;;;5034425;28;20516;-48
2024/01/24 00:31:00;;;;;;;3.00;2.77;;;8.40;99.90;;;;;;5039354;28;20231;-49
2024/01/24 00:33:30;;;;;;;3.40;3.20;;;8.40;99.90;;;;;;5005584;28;20667;-50
2024/01/24 00:35:58;;;;;;;3.00;2.60;;;8.50;99.90;;;;;;5032742;28;20287;-48
2024/01/24 00:38:25;;;;;;;3.23;3.03;;;8.60;99.90;;;;;;5030551;28;20191;-50
2024/01/24 00:40:52;;;;;;;3.43;3.23;;;8.70;99.90;;;;;;5034968;28;20229;-52
2024/01/24 00:43:18;;;;;;;3.47;2.70;;;8.70;99.90;;;;;;5033225;28;20187;-52
2024/01/24 00:45:44;;;;;;;3.50;3.20;;;8.70;99.90;;;;;;5034212;28;20199;-48
2024/01/24 00:48:11;;;;;;;3.23;3.03;;;8.80;99.90;;;;;;5042406;28;20203;-50
2024/01/24 00:50:38;;;;;;;3.27;3.07;;;8.90;99.90;;;;;;5004085;28;20215;-52
2024/01/24 00:53:06;;;;;;;3.77;3.47;;;9.00;99.90;;;;;;5045929;28;20231;-52
2024/01/24 00:55:35;;;;;;;3.73;3.43;;;9.00;99.90;;;;;;5034870;28;20888;-48
2024/01/24 00:58:01;;;;;;;4.27;3.87;;;9.00;99.90;;;;;;5036377;28;20199;-47
2024/01/24 01:00:28;;;;;;;3.37;3.07;;;9.10;99.90;;;;;;5034632;28;20207;-47
2024/01/24 01:02:55;;;;;;;3.23;3.03;;;9.10;99.90;;;;;;5040371;28;20203;-53
2024/01/24 01:05:22;;;;;;;4.17;3.60;;;9.20;99.90;;;;;;5006995;28;20216;-51
2024/01/24 01:07:49;;;;;;;3.30;3.00;;;9.20;99.90;;;;;;5037252;28;20204;-50
2024/01/24 01:10:17;;;;;;;3.00;2.80;;;9.30;99.90;;;;;;5036869;28;20216;-50
2024/01/24 01:12:44;;;;;;;3.97;3.57;;;9.30;99.90;;;;;;5002388;28;1059808;-49
2024/01/24 01:15:11;;;;;;;3.87;3.57;;;9.40;99.90;;;;;;5039690;28;20199;-51
2024/01/24 01:17:38;;;;;;;4.13;3.70;;;9.40;99.90;;;;;;5035130;28;20200;-46
2024/01/24 01:20:05;;;;;;;3.90;3.50;;;9.50;99.90;;;;;;5039836;28;20269;-51
2024/01/24 01:22:32;;;;;;;3.60;3.27;;;9.50;99.90;;;;;;5009094;28;20196;-51
2024/01/24 01:24:59;;;;;;;3.73;3.43;;;9.60;99.90;;;;;;5043170;28;20199;-49
2024/01/24 01:27:27;;;;;;;3.30;3.00;;;9.60;99.90;;;;;;5036910;28;20206;-52
2024/01/24 01:29:54;;;;;;;3.20;2.90;;;9.70;99.90;;;;;;5042509;28;20582;-47
2024/01/24 01:32:21;;;;;;;3.50;3.20;;;9.80;99.90;;;;;;5042669;28;20202;-51
2024/01/24 01:34:50;;;;;;;3.90;3.60;;;9.80;99.90;;;;;;5047319;28;20209;-49
2024/01/24 01:37:16;;;;;;;3.40;3.20;;;9.80;99.90;;;;;;5008585;28;20251;-52
2024/01/24 01:39:43;;;;;;;3.17;2.93;;;9.90;99.90;;;;;;5033963;28;20322;-48
2024/01/24 01:42:10;;;;;;;3.30;3.00;;;9.90;99.90;;;;;;5044612;28;20633;-50
2024/01/24 01:44:46;;;;;;;4.73;3.40;;;10.00;99.90;;;;;;5029584;28;20212;-49
2024/01/24 01:47:13;;;;;;;4.20;2.77;;;10.00;99.90;;;;;;5035290;28;20275;-51
2024/01/24 01:49:42;;;;;;;3.10;2.90;;;10.10;99.90;;;;;;5038574;28;20296;-51
2024/01/24 01:52:10;;;;;;;3.20;2.90;;;10.10;99.90;;;;;;4996717;28;21968;-48
2024/01/24 01:54:37;;;;;;;5.30;3.40;;;10.20;99.90;;;;;;5047237;28;20201;-49
2024/01/24 01:57:08;;;;;;;3.60;3.00;;;10.20;99.90;;;;;;5042132;28;20243;-52
2024/01/24 01:59:35;;;;;;;2.93;2.73;;;10.30;99.90;;;;;;5042906;28;20311;-50
2024/01/24 02:02:04;;;;;;;2.83;2.63;;;10.40;99.90;;;;;;5038798;28;20273;-49
2024/01/24 02:04:31;;;;;;;3.20;3.00;;;10.40;99.90;;;;;;5019657;28;20192;-48
2024/01/24 02:07:00;;;;;;;3.10;2.90;;;10.40;99.90;;;;;;5017376;28;20203;-52
2024/01/24 02:09:28;;;;;;;3.03;2.73;;;10.50;99.90;;;;;;5033537;28;20265;-51
2024/01/24 02:11:55;;;;;;;3.00;2.80;;;10.50;99.90;;;;;;5028688;28;20204;-51
2024/01/24 02:14:22;;;;;;;3.30;2.50;;;10.60;99.90;;;;;;5029210;28;20253;-48
2024/01/24 02:16:49;;;;;;;2.73;2.37;;;10.70;99.90;;;;;;5024855;28;20218;-51
2024/01/24 02:19:17;;;;;;;3.43;2.63;;;10.70;99.90;;;;;;5047114;28;20957;-50
2024/01/24 02:21:44;;;;;;;3.67;3.37;;;10.70;99.90;;;;;;5041791;28;20219;-49
2024/01/24 02:24:13;;;;;;;3.83;2.80;;;10.80;99.90;;;;;;5010028;28;20203;-48
2024/01/24 02:26:40;;;;;;;3.40;3.20;;;10.80;99.90;;;;;;5039610;28;20683;-52
2024/01/24 02:29:07;;;;;;;2.33;2.10;;;10.80;99.90;;;;;;5039197;28;20223;-49
2024/01/24 02:31:33;;;;;;;2.97;2.67;;;10.90;99.90;;;;;;5035592;28;20190;-51
2024/01/24 02:34:00;;;;;;;3.70;3.40;;;10.90;99.90;;;;;;5034730;28;20195;-49
2024/01/24 02:36:27;;;;;;;3.47;3.17;;;11.00;99.90;;;;;;5043199;28;20194;-51
2024/01/24 02:38:54;;;;;;;3.20;3.00;;;11.00;99.90;;;;;;5014765;28;20292;-48
2024/01/24 02:41:23;;;;;;;3.17;2.97;;;11.00;99.90;;;;;;5043050;28;20757;-47
2024/01/24 02:43:50;;;;;;;3.10;2.90;;;11.00;99.90;;;;;;5044552;28;20196;-52
2024/01/24 02:46:17;;;;;;;3.77;2.83;;;11.00;99.90;;;;;;5041590;28;20191;-48
2024/01/24 02:48:43;;;;;;;2.80;2.60;;;11.00;99.90;;;;;;5044280;28;20222;-55
2024/01/24 02:51:10;;;;;;;2.83;2.10;;;11.10;99.90;;;;;;5043037;28;20207;-49
2024/01/24 02:53:37;;;;;;;3.20;2.10;;;11.10;99.90;;;;;;5035434;28;20203;-51
2024/01/24 02:56:04;;;;;;;1.53;1.43;;;11.10;99.90;;;;;;4997947;28;20192;-52
2024/01/24 02:58:32;;;;;;;1.60;1.50;;;11.10;99.90;;;;;;5036255;28;20679;-49
2024/01/24 03:00:59;;;;;;;1.60;1.50;;;11.20;99.90;;;;;;5041547;28;20243;-51
2024/01/24 03:03:26;;;;;;;1.33;1.00;;;11.30;99.90;;;;;;5046410;28;20195;-52
2024/01/24 03:05:53;;;;;;;1.07;0.90;;;11.20;99.90;;;;;;5040987;28;20206;-48
2024/01/24 03:08:20;;;;;;;1.47;0.90;;;11.30;99.90;;;;;;5037756;28;20206;-49
2024/01/24 03:10:46;;;;;;;0.90;0.57;;;11.30;99.90;;;;;;5004182;28;20228;-52
2024/01/24 03:13:13;;;;;;;1.53;0.70;;;11.30;99.90;;;;;;5032517;28;20251;-48
2024/01/24 03:15:42;;;;;;;0.87;0.73;;;11.40;99.90;;;;;;5034113;28;20191;-52
2024/01/24 03:18:08;;;;;;;1.47;1.00;;;11.40;99.90;;;;;;5032136;28;20879;-47
2024/01/24 03:20:37;;;;;;;1.03;0.87;;;11.30;99.90;;;;;;5036290;28;20219;-47
2024/01/24 03:23:04;;;;;;;2.77;0.70;;;11.40;99.90;;;;;;5040354;28;20193;-51
2024/01/24 03:25:31;;;;;;;0.80;0.80;;;11.40;99.90;;;;;;5011666;28;20420;-49
2024/01/24 03:27:58;;;;;;;0.57;0.50;;;11.40;99.90;;;;;;5032058;28;20199;-50
2024/01/24 03:30:25;;;;;;;0.40;0.40;;;11.40;99.90;;;;;;5047605;28;20242;-49
2024/01/24 03:32:53;;;;;;;0.40;0.40;;;11.40;99.90;;;;;;5034198;28;20725;-49
2024/01/24 03:35:20;;;;;;;0.40;0.40;;;11.40;99.90;;;;;;5036435;28;20200;-49
2024/01/24 03:37:47;;;;;;;1.63;0.70;;;11.50;99.90;;;;;;5031888;28;20265;-50
2024/01/24 03:40:14;;;;;;;4.10;0.90;;;11.50;99.90;;;;;;5034686;28;20207;-49
2024/01/24 03:42:42;;;;;;;1.00;0.60;;;11.40;99.90;;;;;;5006843;28;20216;-46
2024/01/24 03:45:09;;;;;;;3.70;1.53;;;11.40;99.90;;;;;;5033021;28;20217;-49
2024/01/24 03:47:36;;;;;;;4.17;0.80;;;11.30;99.90;;;;;;5040114;28;20268;-51
2024/01/24 03:50:05;;;;;;;4.00;1.00;;;11.20;99.90;;;;;;5042432;28;20276;-49
2024/01/24 03:52:32;;;;;;;4.43;0.80;;;11.10;99.90;;;;;;5042047;28;20195;-49
2024/01/24 03:54:59;;;;;;;1.70;0.50;;;11.10;99.90;;;;;;5034515;28;20771;-48
2024/01/24 03:57:26;;;;;;;5.03;0.90;;;11.10;99.90;;;;;;5008633;28;20272;-48
2024/01/24 03:59:53;;;;;;;2.77;0.93;;;11.10;99.90;;;;;;5038060;28;20309;-51
2024/01/24 04:02:20;;;;;;;5.97;1.13;;;11.10;99.90;;;;;;5044620;28;20207;-48
2024/01/24 04:04:47;;;;;;;3.73;0.73;;;11.10;99.90;;;;;;5027638;28;20219;-48
2024/01/24 04:07:15;;;;;;;4.73;0.80;;;11.10;99.90;;;;;;5036363;28;20195;-48
2024/01/24 04:09:42;;;;;;;2.43;1.30;;;11.20;99.90;;;;;;5036263;28;20224;-46
2024/01/24 04:12:09;;;;;;;4.63;1.10;;;11.20;99.90;;;;;;5039653;28;20254;-50
2024/01/24 04:14:36;;;;;;;7.30;1.00;;;11.20;99.90;;;;;;5013324;28;20265;-50
2024/01/24 04:17:03;;;;;;;4.83;0.83;;;11.20;99.90;;;;;;5041312;28;20195;-46
2024/01/24 04:19:30;;;;;;;3.77;1.07;;;11.20;99.90;;;;;;5037735;28;20262;-49
2024/01/24 04:21:57;;;;;;;2.03;0.67;;;11.20;99.90;;;;;;5037218;28;20227;-49
2024/01/24 04:24:25;;;;;;;4.30;1.10;;;11.20;99.90;;;;;;5033166;28;20204;-51
2024/01/24 04:26:52;;;;;;;3.07;0.73;;;11.30;99.90;;;;;;5028556;28;20203;-49
2024/01/24 04:29:19;;;;;;;2.67;1.13;;;11.30;99.90;;;;;;5007770;28;20737;-49
2024/01/24 04:31:46;;;;;;;4.67;1.03;;;11.30;99.90;;;;;;5032476;28;20223;-50
2024/01/24 04:34:13;;;;;;;4.63;1.10;;;11.30;99.90;;;;;;5035325;28;20253;-48
2024/01/24 04:36:39;;;;;;;5.17;0.90;;;11.30;99.90;;;;;;5032908;28;20274;-49
2024/01/24 04:39:06;;;;;;;1.97;1.00;;;11.30;99.90;;;;;;5036965;28;20199;-48
2024/01/24 04:41:34;;;;;;;3.37;0.57;;;11.20;99.90;;;;;;5038629;28;20208;-49
2024/01/24 04:44:01;;;;;;;4.93;1.00;;;11.10;99.90;;;;;;5007968;28;20204;-47
2024/01/24 04:46:28;;;;;;;6.13;1.50;;;11.10;99.90;;;;;;5034023;28;20218;-48
2024/01/24 04:48:55;;;;;;;4.33;1.00;;;11.10;99.90;;;;;;5034350;28;20340;-48
2024/01/24 04:51:23;;;;;;;6.30;1.00;;;11.00;99.90;;;;;;5037192;28;20223;-49
2024/01/24 04:53:51;;;;;;;2.43;1.30;;;11.00;99.90;;;;;;5034779;28;20192;-47
2024/01/24 04:56:18;;;;;;;4.77;1.37;;;11.00;99.90;;;;;;5034942;28;20279;-49
2024/01/24 04:58:47;;;;;;;6.47;1.57;;;11.00;99.90;;;;;;5037664;28;20203;-48
2024/01/24 05:01:14;;;;;;;5.30;1.10;;;11.00;99.90;;;;;;5002683;28;20226;-51
2024/01/24 05:03:41;;;;;;;5.50;1.50;;;11.00;99.90;;;;;;5029546;28;20184;-47
2024/01/24 05:06:08;;;;;;;9.43;1.73;;;11.00;99.90;;;;;;5030972;28;20660;-48
2024/01/24 05:08:35;;;;;;;8.30;2.13;;;10.90;99.90;;;;;;5022175;28;20839;-51
2024/01/24 05:11:02;;;;;;;11.17;2.07;;;10.90;99.90;;;;;;5037071;28;20241;-49
2024/01/24 05:13:29;;;;;;;9.70;2.03;;;10.90;99.90;;;;;;5033078;28;20199;-47
2024/01/24 05:15:57;;;;;;;7.17;1.97;;;11.00;99.90;;;;;;5006197;28;22327;-49
2024/01/24 05:18:24;;;;;;;6.23;2.00;;;11.00;99.90;;;;;;5040542;28;20667;-48
2024/01/24 05:20:51;;;;;;;11.83;1.93;;;11.00;99.90;;;;;;5038438;28;20215;-48
2024/01/24 05:23:17;;;;;;;14.93;1.93;;;11.00;99.90;;;;;;5034097;28;20237;-51
2024/01/24 05:25:44;;;;;;;8.50;2.50;;;11.00;99.90;;;;;;5020605;28;20265;-49
2024/01/24 05:28:11;;;;;;;11.00;2.37;;;11.00;99.90;;;;;;5042296;28;20191;-49
2024/01/24 05:30:38;;;;;;;13.30;2.90;;;11.00;99.90;;;;;;5024401;28;20227;-48
2024/01/24 05:33:07;;;;;;;15.63;3.87;;;11.00;99.90;;;;;;5012970;28;20207;-48
2024/01/24 05:35:34;;;;;;;13.57;2.87;;;11.00;99.90;;;;;;5030085;28;20552;-49
2024/01/24 05:38:00;;;;;;;12.53;2.90;;;11.10;99.90;;;;;;5022718;28;20912;-53
2024/01/24 05:40:27;;;;;;;11.03;3.53;;;11.00;99.90;;;;;;5036940;28;20215;-51
2024/01/24 05:42:54;;;;;;;15.00;3.43;;;11.10;99.90;;;;;;5037641;28;20643;-53
2024/01/24 05:45:21;;;;;;;11.33;3.00;;;11.10;99.90;;;;;;5032906;28;20207;-48
2024/01/24 05:47:48;;;;;;;16.17;3.10;;;11.10;99.90;;;;;;5017459;28;20210;-50
2024/01/24 05:50:16;;;;;;;11.87;3.30;;;11.20;99.90;;;;;;5041281;28;20245;-49
2024/01/24 05:52:44;;;;;;;17.73;3.70;;;11.20;99.90;;;;;;5035647;28;20210;-51
2024/01/24 05:55:11;;;;;;;11.87;2.73;;;11.20;99.90;;;;;;5039580;28;20227;-49
2024/01/24 05:57:40;;;;;;;12.73;2.80;;;11.10;99.90;;;;;;5033198;28;20191;-48
2024/01/24 06:00:09;;;;;;;10.67;2.13;;;11.20;99.90;;;;;;5030239;28;20239;-50
2024/01/24 06:02:36;;;;;;;13.67;2.70;;;11.20;99.90;;;;;;5014411;28;20211;-49
2024/01/24 06:05:03;;;;;;;15.97;3.20;;;11.20;99.90;;;;;;5038609;28;21200;-50
2024/01/24 06:07:32;;;;;;;12.07;3.20;;;11.20;99.90;;;;;;5026973;28;20207;-47
2024/01/24 06:10:00;;;;;;;14.93;3.30;;;11.20;99.90;;;;;;5025095;28;20231;-48
2024/01/24 06:12:28;;;;;;;9.70;3.13;;;11.20;99.90;;;;;;5019479;28;20216;-49
2024/01/24 06:14:55;;;;;;;15.37;3.40;;;11.10;99.90;;;;;;5028920;28;20211;-49
2024/01/24 06:17:22;;;;;;;16.23;2.77;;;11.00;99.90;;;;;;5036855;28;20351;-47
2024/01/24 06:19:50;;;;;;;9.27;3.33;;;10.90;99.90;;;;;;5005184;28;20226;-50
2024/01/24 06:22:16;;;;;;;15.50;3.50;;;10.80;99.90;;;;;;5034555;28;20296;-46
2024/01/24 06:24:45;;;;;;;15.23;3.40;;;10.70;99.90;;;;;;5033408;28;20273;-50
2024/01/24 06:27:12;;;;;;;15.47;3.17;;;10.60;99.90;;;;;;5029364;28;20261;-48
2024/01/24 06:29:38;;;;;;;15.93;3.20;;;10.50;99.90;;;;;;5038080;28;20215;-47
2024/01/24 06:32:06;;;;;;;12.70;3.17;;;10.50;99.90;;;;;;5031002;28;20184;-49
2024/01/24 06:34:33;;;;;;;12.47;3.53;;;10.40;99.90;;;;;;4993858;28;20618;-48
2024/01/24 06:37:00;;;;;;;18.10;4.23;;;10.40;99.90;;;;;;5039051;28;20208;-47
2024/01/24 06:39:27;;;;;;;10.13;2.93;;;10.40;99.90;;;;;;5030376;28;20255;-47
2024/01/24 06:41:55;;;;;;;11.23;2.97;;;10.40;99.90;;;;;;5019289;28;20244;-48
2024/01/24 06:44:22;;;;;;;15.83;2.70;;;10.50;99.90;;;;;;5035531;28;20552;-48
2024/01/24 06:46:49;;;;;;;14.90;3.23;;;10.50;99.90;;;;;;5032055;28;20211;-49
2024/01/24 06:49:16;;;;;;;12.90;3.53;;;10.60;99.90;;;;;;5021338;28;20238;-47
2024/01/24 06:51:42;;;;;;;11.07;2.47;;;10.60;99.90;;;;;;5016697;28;20204;-51
2024/01/24 06:54:12;;;;;;;9.83;3.50;;;10.70;99.90;;;;;;5029746;28;20188;-52
2024/01/24 06:56:39;;;;;;;14.43;3.27;;;10.70;99.90;;;;;;5030752;28;20206;-45
2024/01/24 06:59:07;;;;;;;12.67;3.00;;;10.80;99.90;;;;;;5030091;28;20260;-48
2024/01/24 07:01:34;;;;;;;17.03;2.80;;;10.80;99.90;;;;;;5021533;28;20208;-48
2024/01/24 07:04:01;;;;;;;16.03;3.00;;;10.80;99.90;;;;;;5023310;28;20301;-48
2024/01/24 07:06:28;;;;;;;13.60;2.90;;;10.80;99.90;;;;;;5005462;28;20246;-48
2024/01/24 07:08:56;;;;;;;16.97;3.93;;;10.90;99.90;;;;;;5031695;28;20692;-47
2024/01/24 07:11:22;;;;;;;17.47;2.80;;;10.90;99.90;;;;;;5028739;28;20223;-45
2024/01/24 07:13:49;;;;;;;14.40;3.10;;;10.80;99.90;;;;;;5040872;28;20208;-46
2024/01/24 07:16:18;;;;;;;15.53;3.33;;;10.90;99.90;;;;;;5027264;28;20238;-45
2024/01/24 07:18:45;;;;;;;13.73;3.50;;;10.90;99.90;;;;;;5027765;28;20214;-49
2024/01/24 07:21:11;;;;;;;17.87;4.37;;;10.90;99.90;;;;;;5002708;28;20293;-47
2024/01/24 07:23:39;;;;;;;19.77;4.07;;;10.90;99.90;;;;;;5032502;28;21245;-46
2024/01/24 07:26:06;;;;;;;22.03;3.93;;;10.80;99.90;;;;;;5028298;28;20202;-46
2024/01/24 07:28:34;;;;;;;21.03;4.20;;;10.70;99.90;;;;;;5028216;28;20213;-45
2024/01/24 07:31:01;;;;;;;19.47;3.53;;;10.50;99.90;;;;;;5032996;28;20792;-49
2024/01/24 07:33:29;;;;;;;14.20;3.73;;;10.40;99.90;;;;;;5021758;28;21005;-44
2024/01/24 07:35:55;;;;;;;10.13;3.20;;;10.40;99.90;;;;;;5029299;28;20273;-45
2024/01/24 07:38:22;;;;;;;16.83;3.73;;;10.30;99.90;;;;;;5003566;28;20204;-45
2024/01/24 07:40:49;;;;;;;18.87;4.70;;;10.30;99.90;;;;;;5033659;28;20281;-48
2024/01/24 07:43:16;;;;;;;11.47;3.83;;;10.30;99.90;;;;;;5019393;28;20219;-46
2024/01/24 07:45:44;;;;;;;19.63;3.73;;;10.30;99.90;;;;;;5030408;28;20435;-51
2024/01/24 07:48:13;;;;;;;20.53;4.40;;;10.30;99.90;;;;;;5025635;28;20222;-44
2024/01/24 07:50:42;;;;;;;13.07;3.43;;;10.30;99.90;;;;;;5018226;28;20589;-47
2024/01/24 07:53:09;;;;;;;21.67;4.77;;;10.30;99.90;;;;;;4996325;28;20204;-45
2024/01/24 07:55:36;;;;;;;21.60;3.93;;;10.40;99.90;;;;;;5029180;28;20199;-47
2024/01/24 07:58:04;;;;;;;22.33;4.20;;;10.40;99.90;;;;;;5022299;28;20195;-46
2024/01/24 08:00:31;;;;;;;21.50;3.83;;;10.50;99.90;;;;;;5031907;28;20207;-46
2024/01/24 08:02:58;;;;;;;19.30;3.63;;;10.50;99.90;;;;;;5029430;28;20249;-44
2024/01/24 08:05:26;;;;;;;14.07;3.47;;;10.60;99.90;;;;;;5034800;28;20837;-44
2024/01/24 08:07:54;;;;;;;21.07;4.57;;;10.60;99.90;;;;;;4993581;28;20864;-43
2024/01/24 08:10:21;;;;;;;18.10;4.10;;;10.60;99.90;;;;;;5015030;28;20230;-52
2024/01/24 08:12:49;;;;;;;18.97;4.90;;;10.60;99.90;;;;;;5035896;28;20729;-45
2024/01/24 08:15:16;;;;;;;18.83;4.30;;;10.60;99.90;;;;;;5029226;28;20634;-45
2024/01/24 08:17:43;;;;;;;20.50;4.53;;;10.60;99.90;;;;;;5034111;28;20198;-48
2024/01/24 08:20:11;;;;;;;20.17;4.67;;;10.60;99.90;;;;;;5023769;28;20715;-45
2024/01/24 08:22:38;;;;;;;18.37;4.20;;;10.60;99.90;;;;;;5022696;28;22770;-46
2024/01/24 08:25:08;;;;;;;22.43;3.77;;;10.60;99.90;;;;;;5008133;28;20533;-50
2024/01/24 08:27:36;;;;;;;19.57;4.40;;;10.60;99.90;;;;;;5023721;28;20195;-46
2024/01/24 08:30:03;;;;;;;18.43;4.20;;;10.60;99.90;;;;;;5030934;28;20246;-46
2024/01/24 08:32:30;;;;;;;22.63;4.60;;;10.60;99.90;;;;;;5038676;28;20184;-49
2024/01/24 08:34:57;;;;;;;27.50;5.00;;;10.60;99.90;;;;;;5025863;28;20211;-44
2024/01/24 08:37:24;;;;;;;21.13;4.77;;;10.60;99.90;;;;;;5036612;28;20211;-47
2024/01/24 08:39:51;;;;;;;24.43;4.77;;;10.60;99.90;;;;;;5004440;28;20231;-44
2024/01/24 08:42:19;;;;;;;23.17;4.40;;;10.60;99.90;;;;;;5037268;28;20207;-43
2024/01/24 08:44:46;;;;;;;19.60;4.87;;;10.60;99.90;;;;;;5022266;28;20284;-50
2024/01/24 08:47:13;;;;;;;17.63;3.90;;;10.60;99.90;;;;;;5039892;28;20219;-44
2024/01/24 08:49:39;;;;;;;21.70;5.83;;;10.60;99.90;;;;;;5028388;28;20722;-47
2024/01/24 08:52:07;;;;;;;20.50;4.50;;;10.60;99.90;;;;;;5031818;28;20384;-46
2024/01/24 08:54:33;;;;;;;20.20;4.40;;;10.60;99.90;;;;;;5006343;28;20568;-49
2024/01/24 08:57:00;;;;;;;17.53;4.37;;;10.50;99.90;;;;;;5024659;28;20233;-44
2024/01/24 08:59:28;;;;;;;19.90;4.53;;;10.50;99.90;;;;;;5043736;28;20211;-45
2024/01/24 09:01:56;;;;;;;19.80;5.10;;;10.50;99.90;;;;;;5025392;28;20191;-43
2024/01/24 09:04:24;;;;;;;20.00;4.37;;;10.50;99.90;;;;;;5033285;28;20603;-44
2024/01/24 09:06:50;;;;;;;18.10;4.13;;;10.50;99.90;;;;;;5025328;28;20265;-45
2024/01/24 09:09:18;;;;;;;16.27;3.80;;;10.50;99.90;;;;;;5032390;28;20850;-47
2024/01/24 09:11:45;;;;;;;12.47;3.67;;;10.60;99.90;;;;;;5002443;28;20926;-52
2024/01/24 09:14:12;;;;;;;16.03;4.00;;;10.60;99.90;;;;;;5038087;28;20227;-45
2024/01/24 09:16:41;;;;;;;16.57;4.40;;;10.60;99.90;;;;;;5034363;28;20607;-50
2024/01/24 09:19:08;;;;;;;28.70;5.57;;;10.60;99.90;;;;;;5015717;28;20833;-46
2024/01/24 09:21:36;;;;;;;24.03;5.27;;;10.60;99.90;;;;;;5023326;28;20207;-55
2024/01/24 09:24:03;;;;;;;19.00;4.70;;;10.60;99.90;;;;;;5028817;28;20207;-49
2024/01/24 09:26:30;;;;;;;21.83;4.50;;;10.50;99.90;;;;;;5011046;28;20211;-48
2024/01/24 09:28:57;;;;;;;19.30;4.70;;;10.50;99.90;;;;;;5041031;28;20209;-48
2024/01/24 09:31:24;;;;;;;18.23;4.17;;;10.50;99.90;;;;;;5043868;28;20253;-55
2024/01/24 09:33:52;;;;;;;18.20;5.17;;;10.60;99.90;;;;;;5031441;28;20187;-49
2024/01/24 09:36:19;;;;;;;19.63;4.90;;;10.60;99.90;;;;;;5037537;28;20726;-51
2024/01/24 09:38:46;;;;;;;20.97;4.23;;;10.50;99.90;;;;;;5025237;28;20226;-58
2024/01/24 09:41:18;;;;;;;26.00;4.80;;;10.50;99.90;;;;;;5041152;28;20227;-50
2024/01/24 09:43:46;;;;;;;13.57;4.10;;;10.50;99.90;;;;;;4998716;28;20214;-54
2024/01/24 09:46:15;;;;;;;19.00;4.43;;;10.50;99.90;;;;;;5039055;28;20210;-49
2024/01/24 09:48:44;;;;;;;16.03;4.33;;;10.50;99.90;;;;;;5031363;28;20199;-54
2024/01/24 09:51:13;;;;;;;24.20;4.87;;;10.50;99.90;;;;;;5039360;28;20223;-53
2024/01/24 09:53:44;;;;;;;17.43;3.50;;;10.50;99.90;;;;;;5028854;28;20204;-57
2024/01/24 09:56:11;;;;;;;21.30;5.40;;;10.50;99.90;;;;;;5038312;28;20207;-55
2024/01/24 09:58:38;;;;;;;20.60;4.43;;;10.50;99.90;;;;;;5004804;28;20257;-55
2024/01/24 10:01:07;;;;;;;24.13;4.03;;;10.50;99.90;;;;;;5029879;28;20246;-52
2024/01/24 10:03:34;;;;;;;22.33;4.17;;;10.50;99.90;;;;;;5029188;28;20571;-54
2024/01/24 10:06:02;;;;;;;19.20;4.37;;;10.40;99.90;;;;;;5038085;28;20285;-53
2024/01/24 10:08:30;;;;;;;18.33;4.70;;;10.40;99.90;;;;;;5033027;28;20722;-49
2024/01/24 10:10:57;;;;;;;18.13;3.87;;;10.40;99.90;;;;;;5021901;28;20231;-48
2024/01/24 10:13:26;;;;;;;21.40;4.23;;;10.40;99.90;;;;;;5030795;28;20647;-53
2024/01/24 10:15:54;;;;;;;18.87;4.70;;;10.40;99.90;;;;;;5001078;28;20199;-50
2024/01/24 10:18:23;;;;;;;17.20;4.17;;;10.40;99.90;;;;;;5036983;28;20242;-47
2024/01/24 10:20:49;;;;;;;20.00;4.57;;;10.50;99.90;;;;;;5029311;28;20219;-48
2024/01/24 10:23:16;;;;;;;18.07;3.97;;;10.40;99.90;;;;;;5037134;28;20651;-50
2024/01/24 10:25:44;;;;;;;22.37;5.27;;;10.50;99.90;;;;;;5034368;28;20199;-53
2024/01/24 10:28:13;;;;;;;16.13;4.13;;;10.50;99.90;;;;;;5038936;28;20261;-51
2024/01/24 10:30:41;;;;;;;19.50;4.33;;;10.50;99.90;;;;;;5007986;28;20227;-50
2024/01/24 10:33:11;;;;;;;17.30;4.37;;;10.40;99.90;;;;;;5034058;28;20198;-47
2024/01/24 10:35:38;;;;;;;15.67;4.37;;;10.40;99.90;;;;;;5030303;28;20195;-50
2024/01/24 10:38:05;;;;;;;24.50;4.97;;;10.30;99.90;;;;;;5035816;28;20200;-48
2024/01/24 10:40:33;;;;;;;18.93;3.83;;;10.30;99.90;;;;;;5031406;28;20223;-53
2024/01/24 10:43:06;;;;;;;21.30;4.47;;;10.30;99.90;;;;;;5026112;28;20444;-49
2024/01/24 10:45:35;;;;;;;19.07;4.43;;;10.30;99.90;;;;;;5014377;28;20207;-50
2024/01/24 10:48:02;;;;;;;25.50;5.00;;;10.30;99.90;;;;;;5046349;28;20226;-47
2024/01/24 10:50:31;;;;;;;23.70;4.87;;;10.30;99.90;;;;;;5030457;28;20694;-49
2024/01/24 10:52:59;;;;;;;18.67;4.63;;;10.30;99.90;;;;;;5035930;28;20191;-50
2024/01/24 10:55:26;;;;;;;16.27;4.27;;;10.30;99.90;;;;;;5031152;28;20240;-53
2024/01/24 10:57:54;;;;;;;19.87;4.90;;;10.30;99.90;;;;;;5030778;28;20196;-49
2024/01/24 11:00:23;;;;;;;18.67;3.73;;;10.20;99.90;;;;;;5037751;28;20886;-53
2024/01/24 11:02:50;;;;;;;17.73;4.43;;;10.10;99.90;;;;;;5001118;28;20812;-50
2024/01/24 11:05:20;;;;;;;19.77;4.33;;;10.00;99.90;;;;;;5037663;28;20273;-51
2024/01/24 11:07:55;;;;;;;21.07;4.80;;;9.90;99.90;;;;;;5028900;28;20203;-53
2024/01/24 11:10:27;;;;;;;21.13;4.13;;;9.90;99.90;;;;;;5029991;28;20595;-52
2024/01/24 11:12:55;;;;;;;23.40;5.40;;;9.80;99.90;;;;;;5019756;28;20293;-53
2024/01/24 11:15:26;;;;;;;19.83;4.53;;;9.90;99.90;;;;;;5037217;28;20670;-50
2024/01/24 11:18:19;;;;;;;21.80;4.70;;;9.80;99.90;;;;;;5002795;28;20283;-52
2024/01/24 11:20:47;;;;;;;19.07;4.20;;;9.70;99.90;;;;;;5027304;28;20223;-54
2024/01/24 11:23:34;;;;;;;22.93;4.23;;;9.60;99.90;;;;;;5029705;28;20200;-50
2024/01/24 11:26:01;;;;;;;24.13;4.83;;;9.50;99.90;;;;;;5033334;28;20279;-51
2024/01/24 11:28:28;;;;;;;18.10;4.60;;;9.40;99.90;;;;;;5028920;28;20207;-49
2024/01/24 11:30:56;;;;;;;15.73;4.20;;;9.40;99.90;;;;;;5030870;28;20211;-49
2024/01/24 11:33:28;;;;;;;26.70;5.03;;;9.40;99.90;;;;;;4995905;28;20212;-54
2024/01/24 11:36:12;;;;;;;18.67;4.37;;;9.50;99.90;;;;;;5029630;28;20281;-49
2024/01/24 11:38:51;;;;;;;16.97;4.40;;;9.50;99.90;;;;;;5011136;28;20203;-48
2024/01/24 11:41:41;;;;;;;21.37;4.60;;;9.30;99.90;;;;;;5034361;28;20293;-52
2024/01/24 11:44:12;;;;;;;23.70;5.37;;;9.30;99.90;;;;;;5028462;28;20211;-54
2024/01/24 11:46:41;;;;;;;20.53;4.30;;;9.20;99.90;;;;;;5027620;28;20198;-49
2024/01/24 11:49:09;;;;;;;23.10;4.80;;;9.20;99.90;;;;;;5010166;28;20694;-53
2024/01/24 11:51:42;;;;;;;22.70;4.13;;;9.10;99.90;;;;;;5037051;28;20183;-49
2024/01/24 11:54:10;;;;;;;24.80;5.90;;;9.10;99.90;;;;;;5029879;28;20203;-54
2024/01/24 11:56:49;;;;;;;24.23;4.53;;;9.10;99.90;;;;;;5020356;28;20198;-50
2024/01/24 11:59:21;;;;;;;19.53;5.37;;;9.10;99.90;;;;;;5018535;28;20234;-51
2024/01/24 12:01:54;;;;;;;14.93;4.27;;;9.00;99.90;;;;;;5035525;28;20680;-51
2024/01/24 12:04:22;;;;;;;19.80;3.80;;;9.00;99.90;;;;;;4991376;28;20707;-55
2024/01/24 12:06:50;;;;;;;22.87;4.90;;;8.90;99.90;;;;;;5043969;28;20283;-53
2024/01/24 12:09:17;;;;;;;21.40;4.77;;;8.90;99.90;;;;;;5041161;28;20769;-54
2024/01/24 12:11:48;;;;;;;13.30;3.67;;;9.00;99.90;;;;;;5044282;28;20207;-50
2024/01/24 12:14:16;;;;;;;22.73;5.17;;;9.00;99.90;;;;;;5033048;28;20222;-50
2024/01/24 12:16:43;;;;;;;24.40;5.00;;;9.10;99.90;;;;;;5034242;28;21412;-48
2024/01/24 12:19:12;;;;;;;22.63;4.87;;;9.10;99.90;;;;;;5029123;28;20204;-54
2024/01/24 12:21:39;;;;;;;23.67;4.67;;;9.10;99.90;;;;;;5027820;28;20274;-49
2024/01/24 12:24:07;;;;;;;28.67;4.87;;;9.10;99.90;;;;;;5029005;28;20215;-50
2024/01/24 12:26:36;;;;;;;27.50;5.57;;;9.10;99.90;;;;;;5035372;28;20187;-50
2024/01/24 12:29:05;;;;;;;31.77;5.77;;;9.10;99.90;;;;;;5032930;28;20191;-53
2024/01/24 12:31:34;;;;;;;23.40;6.27;;;9.20;99.90;;;;;;5024097;28;20238;-49
2024/01/24 12:34:02;;;;;;;18.17;5.50;;;9.30;99.90;;;;;;5038600;28;20195;-50
2024/01/24 12:36:30;;;;;;;21.17;5.20;;;9.30;99.90;;;;;;5013669;28;20934;-53
2024/01/24 12:38:57;;;;;;;26.17;4.63;;;9.30;99.90;;;;;;5037804;28;20196;-52
2024/01/24 12:41:24;;;;;;;30.40;5.80;;;9.40;99.90;;;;;;5021171;28;20929;-49
2024/01/24 12:43:51;;;;;;;19.93;4.83;;;9.50;99.90;;;;;;5030192;28;20219;-53
2024/01/24 12:46:19;;;;;;;25.10;4.37;;;9.60;99.90;;;;;;5026600;28;20228;-50